createdAt,value
2023-02-17T00:00:54.111Z,58.33
2023-02-17T00:04:03.939Z,59.26
2023-02-17T00:07:10.616Z,58.61
2023-02-17T00:10:16.562Z,58.76
2023-02-17T00:13:23.228Z,58.23
2023-02-17T00:16:32.331Z,58.47
2023-02-17T00:19:41.663Z,57.92
2023-02-17T00:22:47.568Z,55.94
2023-02-17T00:25:54.278Z,56.80
2023-02-17T00:29:02.084Z,57.36
2023-02-17T00:32:10.709Z,57.21
2023-02-17T00:35:19.882Z,59.85
2023-02-17T00:38:26.845Z,60.88
2023-02-17T00:41:33.802Z,62.82
2023-02-17T00:44:40.486Z,61.88
2023-02-17T00:47:46.255Z,62.55
2023-02-17T00:50:55.582Z,63.70
2023-02-17T00:54:01.417Z,64.74
2023-02-17T00:57:08.268Z,64.71
2023-02-17T01:00:16.083Z,65.02
2023-02-17T01:03:23.159Z,65.73
2023-02-17T01:06:36.807Z,65.03
2023-02-17T01:09:43.548Z,65.40
2023-02-17T01:12:49.370Z,64.50
2023-02-17T01:15:57.075Z,63.68
2023-02-17T01:19:03.686Z,63.71
2023-02-17T01:22:13.810Z,64.78
2023-02-17T01:25:19.830Z,62.75
2023-02-17T01:28:26.721Z,61.32
2023-02-17T01:31:39.447Z,60.86
2023-02-17T01:34:46.341Z,59.90
2023-02-17T01:37:54.778Z,59.80
2023-02-17T01:41:07.797Z,60.01
2023-02-17T01:44:21.987Z,59.79
2023-02-17T01:47:32.840Z,59.17
2023-02-17T01:50:48.222Z,59.29
2023-02-17T01:54:10.573Z,58.10
2023-02-17T01:57:26.786Z,57.03
2023-02-17T02:00:44.117Z,56.81
2023-02-17T02:03:53.576Z,56.16
2023-02-17T02:07:04.975Z,54.91
2023-02-17T02:10:17.562Z,55.65
2023-02-17T02:13:24.925Z,59.46
2023-02-17T02:16:49.803Z,61.40
2023-02-17T02:20:31.542Z,60.50
2023-02-17T02:24:08.319Z,53.95
2023-02-17T02:27:48.952Z,52.62
2023-02-17T02:31:27.705Z,51.49
2023-02-17T02:34:55.245Z,52.45
2023-02-17T02:38:12.218Z,51.48
2023-02-17T02:41:29.652Z,50.84
2023-02-17T02:44:35.599Z,50.20
2023-02-17T02:47:56.144Z,49.35
2023-02-17T02:51:35.564Z,51.56
2023-02-17T02:55:00.652Z,50.87
2023-02-17T02:58:22.401Z,50.34
2023-02-17T03:01:47.370Z,49.42
2023-02-17T03:05:14.249Z,49.02
2023-02-17T03:08:36.317Z,50.16
2023-02-17T03:11:49.129Z,49.92
2023-02-17T03:15:08.212Z,49.63
2023-02-17T03:18:14.424Z,47.86
2023-02-17T03:21:23.052Z,48.00
2023-02-17T03:24:36.463Z,47.61
2023-02-17T03:27:46.744Z,46.84
2023-02-17T03:30:53.794Z,46.62
2023-02-17T03:34:02.452Z,47.21
2023-02-17T03:37:08.274Z,47.55
2023-02-17T03:40:17.769Z,47.49
2023-02-17T03:43:23.877Z,47.92
2023-02-17T03:46:30.870Z,48.56
2023-02-17T03:49:36.927Z,50.02
2023-02-17T03:52:43.611Z,50.61
2023-02-17T03:55:52.220Z,48.43
2023-02-17T03:58:59.029Z,48.72
2023-02-17T04:02:04.925Z,48.77
2023-02-17T04:05:12.007Z,48.25
2023-02-17T04:08:18.019Z,48.17
2023-02-17T04:11:27.576Z,49.47
2023-02-17T04:14:33.507Z,49.61
2023-02-17T04:17:41.096Z,48.94
2023-02-17T04:20:47.385Z,48.93
2023-02-17T04:23:55.311Z,47.52
2023-02-17T04:27:03.937Z,48.53
2023-02-17T04:30:12.924Z,48.90
2023-02-17T04:33:20.344Z,51.03
2023-02-17T04:36:28.186Z,56.26
2023-02-17T04:39:34.100Z,59.57
2023-02-17T04:42:43.470Z,56.74
2023-02-17T04:45:49.344Z,54.16
2023-02-17T04:48:56.237Z,53.19
2023-02-17T04:52:02.360Z,57.85
2023-02-17T04:55:11.244Z,65.90
2023-02-17T04:58:20.958Z,55.01
2023-02-17T05:01:27.769Z,52.06
2023-02-17T05:04:34.395Z,51.12
2023-02-17T05:07:41.087Z,48.72
2023-02-17T05:10:47.385Z,50.18
2023-02-17T05:13:56.743Z,48.75
2023-02-17T05:17:02.627Z,50.65
2023-02-17T05:20:12.748Z,51.18
2023-02-17T05:23:18.706Z,52.15
2023-02-17T05:26:25.445Z,50.28
2023-02-17T05:29:33.972Z,50.29
2023-02-17T05:32:40.713Z,50.21
2023-02-17T05:35:46.608Z,48.80
2023-02-17T05:38:53.498Z,47.16
2023-02-17T05:41:59.472Z,48.53
2023-02-17T05:45:09.593Z,46.79
2023-02-17T05:48:15.686Z,47.54
2023-02-17T05:51:22.451Z,50.05
2023-02-17T05:54:28.374Z,51.64
2023-02-17T05:57:35.695Z,50.58
2023-02-17T06:00:44.195Z,52.87
2023-02-17T06:03:51.377Z,54.79
2023-02-17T06:06:57.303Z,57.94
2023-02-17T06:10:04.049Z,53.99
2023-02-17T06:13:09.953Z,54.65
2023-02-17T06:16:19.361Z,53.62
2023-02-17T06:19:25.228Z,53.28
2023-02-17T06:22:31.882Z,51.60
2023-02-17T06:25:37.788Z,50.99
2023-02-17T06:28:44.535Z,50.64
2023-02-17T06:31:53.207Z,48.09
2023-02-17T06:34:59.915Z,46.41
2023-02-17T06:38:05.832Z,46.76
2023-02-17T06:41:12.604Z,44.99
2023-02-17T06:44:18.502Z,45.37
2023-02-17T06:47:27.809Z,43.73
2023-02-17T06:50:33.704Z,43.16
2023-02-17T06:53:40.554Z,42.11
2023-02-17T06:56:46.781Z,40.51
2023-02-17T06:59:53.487Z,40.39
2023-02-17T07:03:02.123Z,40.76
2023-02-17T07:06:09.501Z,40.30
2023-02-17T07:09:15.449Z,40.93
2023-02-17T07:12:22.231Z,41.04
2023-02-17T07:15:28.510Z,41.17
2023-02-17T07:18:38.343Z,39.57
2023-02-17T07:21:44.446Z,41.28
2023-02-17T07:24:51.332Z,41.81
2023-02-17T07:27:57.343Z,41.86
2023-02-17T07:31:09.767Z,42.18
2023-02-17T07:34:18.336Z,40.84
2023-02-17T07:37:25.211Z,42.18
2023-02-17T07:40:31.994Z,43.44
2023-02-17T07:43:38.913Z,39.58
2023-02-17T07:46:45.042Z,39.17
2023-02-17T07:49:54.466Z,41.09
2023-02-17T07:53:00.347Z,41.02
2023-02-17T07:56:08.547Z,42.53
2023-02-17T07:59:16.396Z,41.76
2023-02-17T08:02:23.258Z,41.79
2023-02-17T08:05:31.911Z,43.93
2023-02-17T08:08:51.124Z,50.55
2023-02-17T08:12:09.606Z,49.51
2023-02-17T08:15:17.082Z,45.23
2023-02-17T08:18:23.058Z,46.31
2023-02-17T08:21:33.524Z,46.56
2023-02-17T08:24:39.389Z,46.03
2023-02-17T08:27:46.277Z,47.48
2023-02-17T08:30:52.177Z,41.20
2023-02-17T08:34:00.438Z,39.40
2023-02-17T08:37:10.238Z,42.09
2023-02-17T08:40:17.050Z,43.00
2023-02-17T08:43:22.905Z,44.45
2023-02-17T08:46:31.268Z,40.36
2023-02-17T08:49:37.341Z,38.49
2023-02-17T08:52:46.675Z,37.69
2023-02-17T08:55:52.460Z,37.26
2023-02-17T08:59:00.255Z,35.41
2023-02-17T09:02:06.320Z,36.41
2023-02-17T09:05:13.983Z,37.42
2023-02-17T09:08:23.466Z,38.01
2023-02-17T09:11:30.545Z,38.06
2023-02-17T09:14:36.828Z,39.46
2023-02-17T09:17:44.379Z,41.61
2023-02-17T09:20:50.520Z,37.13
2023-02-17T09:24:00.009Z,35.31
2023-02-17T09:27:06.100Z,38.77
2023-02-17T09:30:14.867Z,47.06
2023-02-17T09:33:20.801Z,50.57
2023-02-17T09:36:33.746Z,46.00
2023-02-17T09:39:42.334Z,38.76
2023-02-17T09:42:50.543Z,36.14
2023-02-17T09:46:04.369Z,35.37
2023-02-17T09:49:19.270Z,36.54
2023-02-17T09:52:36.537Z,37.95
2023-02-17T09:55:54.844Z,39.20
2023-02-17T09:59:10.343Z,34.61
2023-02-17T10:02:31.251Z,36.52
2023-02-17T10:05:45.562Z,35.72
2023-02-17T10:09:02.131Z,34.75
2023-02-17T10:12:18.889Z,36.35
2023-02-17T10:15:34.721Z,32.96
2023-02-17T10:18:50.619Z,32.88
2023-02-17T10:22:14.022Z,32.67
2023-02-17T10:25:28.226Z,32.73
2023-02-17T10:28:54.065Z,31.49
2023-02-17T10:32:22.484Z,33.24
2023-02-17T10:35:51.328Z,34.21
2023-02-17T10:39:09.614Z,34.10
2023-02-17T10:42:28.291Z,34.15
2023-02-17T10:45:41.397Z,33.59
2023-02-17T10:48:55.473Z,36.28
2023-02-17T10:52:09.062Z,36.97
2023-02-17T10:55:28.622Z,39.12
2023-02-17T10:58:44.357Z,36.03
2023-02-17T11:01:54.820Z,34.85
2023-02-17T11:05:00.822Z,31.67
2023-02-17T11:08:31.293Z,31.55
2023-02-17T11:11:40.033Z,34.42
2023-02-17T11:14:51.965Z,37.71
2023-02-17T11:18:11.910Z,34.05
2023-02-17T11:21:19.007Z,32.37
2023-02-17T11:24:25.549Z,36.50
2023-02-17T11:27:33.360Z,33.34
2023-02-17T11:30:41.715Z,30.24
2023-02-17T11:33:51.173Z,32.71
2023-02-17T11:37:07.236Z,30.61
2023-02-17T11:40:29.252Z,31.39
2023-02-17T11:43:36.031Z,32.86
2023-02-17T11:46:55.920Z,32.09
2023-02-17T11:50:41.277Z,30.85
2023-02-17T11:54:07.789Z,30.85
2023-02-17T11:57:39.260Z,33.97
2023-02-17T12:01:12.097Z,37.53
2023-02-17T12:04:30.975Z,36.78
2023-02-17T12:08:02.796Z,35.28
2023-02-17T12:11:32.181Z,36.10
2023-02-17T12:15:10.175Z,32.26
2023-02-17T12:18:42.397Z,33.38
2023-02-17T12:22:11.752Z,36.78
2023-02-17T12:25:31.150Z,42.69
2023-02-17T12:29:31.954Z,48.13
2023-02-17T12:33:08.193Z,38.89
2023-02-17T12:36:26.852Z,37.46
2023-02-17T12:39:44.690Z,36.06
2023-02-17T12:43:05.118Z,33.60
2023-02-17T12:46:23.280Z,31.67
2023-02-17T12:49:40.609Z,33.65
2023-02-17T12:53:03.678Z,33.10
2023-02-17T12:56:51.136Z,32.78
2023-02-17T13:00:05.616Z,32.91
2023-02-17T13:03:13.898Z,33.14
2023-02-17T13:06:39.452Z,33.10
2023-02-17T13:09:56.661Z,33.67
2023-02-17T13:13:21.274Z,35.29
2023-02-17T13:16:35.599Z,37.96
2023-02-17T13:19:42.267Z,35.07
2023-02-17T13:22:51.422Z,36.04
2023-02-17T13:26:29.373Z,35.37
2023-02-17T13:29:39.416Z,47.09
2023-02-17T13:33:08.917Z,45.79
2023-02-17T13:36:20.846Z,44.96
2023-02-17T13:39:41.792Z,38.25
2023-02-17T13:42:50.458Z,40.51
2023-02-17T13:46:10.955Z,46.69
2023-02-17T13:49:29.535Z,43.34
2023-02-17T13:52:36.111Z,47.27
2023-02-17T13:55:43.562Z,39.54
2023-02-17T13:58:49.412Z,35.32
2023-02-17T14:01:58.006Z,29.71
2023-02-17T14:05:21.850Z,27.95
2023-02-17T14:08:40.174Z,26.36
2023-02-17T14:11:46.304Z,27.04
2023-02-17T14:14:53.719Z,27.85
2023-02-17T14:18:00.275Z,27.99
2023-02-17T14:21:13.262Z,26.93
2023-02-17T14:24:32.201Z,30.28
2023-02-17T14:27:47.277Z,29.28
2023-02-17T14:30:54.713Z,28.99
2023-02-17T14:34:05.979Z,27.63
2023-02-17T14:37:31.173Z,28.55
2023-02-17T14:40:40.013Z,32.04
2023-02-17T14:43:46.056Z,30.59
2023-02-17T14:46:52.782Z,30.52
2023-02-17T14:49:58.737Z,30.77
2023-02-17T14:53:17.614Z,31.33
2023-02-17T14:56:32.671Z,33.43
2023-02-17T14:59:39.836Z,32.34
2023-02-17T15:02:45.987Z,32.45
2023-02-17T15:05:53.485Z,33.41
2023-02-17T15:09:04.275Z,37.34
2023-02-17T15:12:20.233Z,36.66
2023-02-17T15:15:26.575Z,36.15
2023-02-17T15:18:33.547Z,36.57
2023-02-17T15:21:43.239Z,36.52
2023-02-17T15:24:53.236Z,36.91
2023-02-17T15:27:59.504Z,37.21
2023-02-17T15:31:06.747Z,40.68
2023-02-17T15:34:18.970Z,35.35
2023-02-17T15:37:25.886Z,31.43
2023-02-17T15:40:34.908Z,33.11
2023-02-17T15:43:41.921Z,31.77
2023-02-17T15:46:49.066Z,29.71
2023-02-17T15:49:55.825Z,28.24
2023-02-17T15:53:02.728Z,25.81
2023-02-17T15:56:22.335Z,27.42
2023-02-17T15:59:31.123Z,26.32
2023-02-17T16:02:37.959Z,26.53
2023-02-17T16:05:45.537Z,27.10
2023-02-17T16:08:52.545Z,28.80
2023-02-17T16:12:01.815Z,27.70
2023-02-17T16:15:14.226Z,27.14
2023-02-17T16:18:26.009Z,28.48
2023-02-17T16:21:39.561Z,30.61
2023-02-17T16:24:47.031Z,29.57
2023-02-17T16:27:58.087Z,32.03
2023-02-17T16:31:13.822Z,27.61
2023-02-17T16:34:24.882Z,29.60
2023-02-17T16:37:30.968Z,29.92
2023-02-17T16:40:47.338Z,32.20
2023-02-17T16:43:58.942Z,29.53
2023-02-17T16:47:08.987Z,29.09
2023-02-17T16:50:27.126Z,28.33
2023-02-17T16:53:33.993Z,28.44
2023-02-17T16:56:46.496Z,28.89
2023-02-17T16:59:56.183Z,29.35
2023-02-17T17:03:04.998Z,25.63
2023-02-17T17:06:25.719Z,27.08
2023-02-17T17:09:31.636Z,25.81
2023-02-17T17:12:38.882Z,26.66
2023-02-17T17:15:49.084Z,26.20
2023-02-17T17:18:56.309Z,25.42
2023-02-17T17:22:04.960Z,25.92
2023-02-17T17:25:18.517Z,27.67
2023-02-17T17:28:26.562Z,27.62
2023-02-17T17:31:40.965Z,23.82
2023-02-17T17:34:47.176Z,24.10
2023-02-17T17:37:54.289Z,27.58
2023-02-17T17:41:00.292Z,25.29
2023-02-17T17:44:10.481Z,25.39
2023-02-17T17:47:29.821Z,25.99
2023-02-17T17:50:36.792Z,24.31
2023-02-17T17:53:42.892Z,24.79
2023-02-17T17:56:50.504Z,25.28
2023-02-17T17:59:58.172Z,24.81
2023-02-17T18:03:08.017Z,21.74
2023-02-17T18:06:21.886Z,21.57
2023-02-17T18:09:36.035Z,22.95
2023-02-17T18:12:45.334Z,23.80
2023-02-17T18:15:52.635Z,22.93
2023-02-17T18:19:06.091Z,25.80
2023-02-17T18:22:16.323Z,24.23
2023-02-17T18:25:23.200Z,23.48
2023-02-17T18:28:30.034Z,24.27
2023-02-17T18:31:38.120Z,24.28
2023-02-17T18:34:47.449Z,25.39
2023-02-17T18:37:53.915Z,24.48
2023-02-17T18:41:03.210Z,25.03
2023-02-17T18:44:11.207Z,24.59
2023-02-17T18:47:18.024Z,24.90
2023-02-17T18:50:27.107Z,24.20
2023-02-17T18:53:36.245Z,28.12
2023-02-17T18:56:42.326Z,28.31
2023-02-17T18:59:50.788Z,25.19
2023-02-17T19:03:03.484Z,24.87
2023-02-17T19:06:19.422Z,23.60
2023-02-17T19:09:25.306Z,26.26
2023-02-17T19:12:32.159Z,26.72
2023-02-17T19:15:38.161Z,24.90
2023-02-17T19:18:46.949Z,24.29
2023-02-17T19:21:56.093Z,25.25
2023-02-17T19:25:07.012Z,23.18
2023-02-17T19:28:13.134Z,23.64
2023-02-17T19:31:23.452Z,22.75
2023-02-17T19:34:31.357Z,24.23
2023-02-17T19:37:43.662Z,24.45
2023-02-17T19:40:50.658Z,24.16
2023-02-17T19:43:57.379Z,23.51
2023-02-17T19:47:05.007Z,24.87
2023-02-17T19:50:12.352Z,24.07
2023-02-17T19:53:27.601Z,23.60
2023-02-17T19:56:37.157Z,24.09
2023-02-17T19:59:43.017Z,23.97
2023-02-17T20:02:50.220Z,23.49
2023-02-17T20:05:56.179Z,23.80
2023-02-17T20:09:14.878Z,23.18
2023-02-17T20:12:21.939Z,27.19
2023-02-17T20:15:28.864Z,23.94
2023-02-17T20:18:34.772Z,23.12
2023-02-17T20:21:47.176Z,23.90
2023-02-17T20:24:55.720Z,22.15
2023-02-17T20:28:04.380Z,23.33
2023-02-17T20:31:11.980Z,27.44
2023-02-17T20:34:34.901Z,27.75
2023-02-17T20:37:40.748Z,28.66
2023-02-17T20:40:50.122Z,28.48
2023-02-17T20:43:56.344Z,28.14
2023-02-17T20:47:17.587Z,26.55
2023-02-17T20:50:26.171Z,24.82
2023-02-17T20:53:32.903Z,25.48
2023-02-17T20:56:45.376Z,27.92
2023-02-17T20:59:52.249Z,26.56
2023-02-17T21:02:58.590Z,22.46
2023-02-17T21:06:24.356Z,26.15
2023-02-17T21:09:30.698Z,26.87
2023-02-17T21:12:40.602Z,26.77
2023-02-17T21:15:46.794Z,26.24
2023-02-17T21:18:55.293Z,25.78
2023-02-17T21:22:01.522Z,27.41
2023-02-17T21:25:12.240Z,28.58
2023-02-17T21:28:25.445Z,26.90
2023-02-17T21:31:32.359Z,24.95
2023-02-17T21:34:42.032Z,25.98
2023-02-17T21:37:48.937Z,23.75
2023-02-17T21:40:55.033Z,20.03
2023-02-17T21:44:16.928Z,18.92
2023-02-17T21:47:26.912Z,18.32
2023-02-17T21:50:37.505Z,17.50
2023-02-17T21:53:43.790Z,17.51
2023-02-17T21:56:50.629Z,17.00
2023-02-17T21:59:59.245Z,19.44
2023-02-17T22:03:05.980Z,19.69
2023-02-17T22:06:22.435Z,18.09
2023-02-17T22:09:32.431Z,17.04
2023-02-17T22:12:39.842Z,18.86
2023-02-17T22:15:49.237Z,22.94
2023-02-17T22:18:55.457Z,22.67
2023-02-17T22:22:08.639Z,18.75
2023-02-17T22:25:33.526Z,15.18
2023-02-17T22:28:40.313Z,15.22
2023-02-17T22:31:50.630Z,14.82
2023-02-17T22:34:57.707Z,16.53
2023-02-17T22:38:03.702Z,16.94
2023-02-17T22:41:13.870Z,16.54
2023-02-17T22:44:20.023Z,17.23
2023-02-17T22:47:29.575Z,16.81
2023-02-17T22:50:35.547Z,15.56
2023-02-17T22:53:42.903Z,14.89
2023-02-17T22:56:48.945Z,15.11
2023-02-17T22:59:55.767Z,15.94
2023-02-17T23:03:04.374Z,16.28
2023-02-17T23:06:18.122Z,15.80
2023-02-17T23:09:24.064Z,17.42
2023-02-17T23:12:30.877Z,16.53
2023-02-17T23:15:42.562Z,16.65
2023-02-17T23:18:52.004Z,16.56
2023-02-17T23:22:03.187Z,16.69
2023-02-17T23:25:09.979Z,17.11
2023-02-17T23:28:16.010Z,18.87
2023-02-17T23:31:22.852Z,18.76
2023-02-17T23:34:32.183Z,20.49
2023-02-17T23:37:38.949Z,27.08
2023-02-17T23:40:45.561Z,33.86
2023-02-17T23:43:52.457Z,21.71
2023-02-17T23:46:58.286Z,15.64
2023-02-17T23:50:09.821Z,14.76
2023-02-17T23:53:15.896Z,14.65
2023-02-17T23:56:27.954Z,14.68
2023-02-17T23:59:40.667Z,16.04
